createdAt,value
2018-07-30T00:01:47.640Z,8.20
2018-07-30T00:04:15.304Z,8.25
2018-07-30T00:06:42.969Z,7.70
2018-07-30T00:09:10.539Z,8.68
2018-07-30T00:11:39.415Z,8.55
2018-07-30T00:14:06.935Z,8.48
2018-07-30T00:16:34.257Z,8.05
2018-07-30T00:19:01.812Z,8.18
2018-07-30T00:21:29.279Z,8.03
2018-07-30T00:23:56.675Z,8.10
2018-07-30T00:26:23.932Z,7.50
2018-07-30T00:28:52.151Z,8.00
2018-07-30T00:31:19.623Z,7.80
2018-07-30T00:33:46.863Z,8.23
2018-07-30T00:36:14.143Z,8.10
2018-07-30T00:38:41.487Z,7.92
2018-07-30T00:41:08.786Z,8.20
2018-07-30T00:43:36.036Z,8.53
2018-07-30T00:46:03.668Z,8.48
2018-07-30T00:48:30.988Z,8.25
2018-07-30T00:50:58.236Z,8.23
2018-07-30T00:53:25.865Z,8.43
2018-07-30T00:55:53.553Z,8.18
2018-07-30T00:58:20.872Z,8.30
2018-07-30T01:00:48.591Z,8.53
2018-07-30T01:03:15.923Z,8.30
2018-07-30T01:05:50.572Z,9.13
2018-07-30T01:08:20.635Z,8.40
2018-07-30T01:10:48.039Z,8.50
2018-07-30T01:13:23.024Z,9.20
2018-07-30T01:15:50.295Z,9.00
2018-07-30T01:18:19.285Z,8.80
2018-07-30T01:20:46.680Z,9.03
2018-07-30T01:23:13.946Z,8.98
2018-07-30T01:25:42.232Z,9.43
2018-07-30T01:28:09.525Z,8.88
2018-07-30T01:30:36.785Z,9.53
2018-07-30T01:33:04.802Z,10.08
2018-07-30T01:35:32.152Z,10.25
2018-07-30T01:37:59.537Z,9.75
2018-07-30T01:40:26.835Z,11.28
2018-07-30T01:42:54.083Z,10.13
2018-07-30T01:45:23.701Z,11.05
2018-07-30T01:47:56.909Z,10.48
2018-07-30T01:50:24.222Z,10.23
2018-07-30T01:52:51.913Z,9.63
2018-07-30T01:55:19.250Z,9.90
2018-07-30T01:57:46.531Z,9.63
2018-07-30T02:00:13.864Z,10.28
2018-07-30T02:02:42.686Z,10.25
2018-07-30T02:05:10.032Z,10.53
2018-07-30T02:07:37.918Z,9.98
2018-07-30T02:10:05.950Z,9.83
2018-07-30T02:12:33.929Z,10.10
2018-07-30T02:15:09.460Z,9.88
2018-07-30T02:17:36.860Z,9.95
2018-07-30T02:20:04.863Z,9.60
2018-07-30T02:22:32.347Z,10.13
2018-07-30T02:24:59.634Z,10.35
2018-07-30T02:27:26.907Z,9.88
2018-07-30T02:30:08.303Z,10.72
2018-07-30T02:32:36.100Z,10.48
2018-07-30T02:35:10.539Z,10.63
2018-07-30T02:37:37.948Z,10.50
2018-07-30T02:40:05.772Z,10.38
2018-07-30T02:42:33.016Z,10.10
2018-07-30T02:45:00.426Z,10.15
2018-07-30T02:47:27.699Z,10.75
2018-07-30T02:49:54.982Z,10.55
2018-07-30T02:52:25.143Z,10.85
2018-07-30T02:55:07.520Z,10.88
2018-07-30T03:00:26.731Z,10.38
2018-07-30T03:03:10.098Z,11.20
2018-07-30T03:05:37.400Z,10.85
2018-07-30T03:08:04.663Z,11.10
2018-07-30T03:10:31.979Z,10.93
2018-07-30T03:13:12.727Z,10.93
2018-07-30T03:15:40.015Z,10.63
2018-07-30T03:18:07.378Z,10.55
2018-07-30T03:20:34.675Z,11.75
2018-07-30T03:23:01.992Z,11.10
2018-07-30T03:25:29.356Z,10.28
2018-07-30T03:27:56.639Z,10.60
2018-07-30T03:30:23.930Z,10.23
2018-07-30T03:32:51.176Z,10.63
2018-07-30T03:35:18.478Z,10.48
2018-07-30T03:37:45.749Z,10.65
2018-07-30T03:40:13.033Z,11.12
2018-07-30T03:42:40.287Z,10.75
2018-07-30T03:45:08.282Z,11.30
2018-07-30T03:47:35.546Z,10.58
2018-07-30T03:50:02.804Z,11.00
2018-07-30T03:52:30.114Z,10.28
2018-07-30T03:54:57.376Z,10.75
2018-07-30T03:57:24.671Z,10.18
2018-07-30T03:59:52.283Z,10.98
2018-07-30T04:02:21.425Z,10.95
2018-07-30T04:04:48.742Z,11.38
2018-07-30T04:07:16.146Z,10.90
2018-07-30T04:09:43.495Z,11.65
2018-07-30T04:12:11.485Z,11.03
2018-07-30T04:14:38.824Z,11.53
2018-07-30T04:17:06.112Z,12.25
2018-07-30T04:19:34.331Z,11.45
2018-07-30T04:22:01.657Z,12.20
2018-07-30T04:24:28.900Z,11.85
2018-07-30T04:26:56.179Z,11.85
2018-07-30T04:29:23.716Z,12.18
2018-07-30T04:31:50.997Z,12.58
2018-07-30T04:34:18.259Z,12.63
2018-07-30T04:36:45.511Z,11.50
2018-07-30T04:39:14.220Z,12.05
2018-07-30T04:41:42.964Z,12.23
2018-07-30T04:44:10.339Z,12.68
2018-07-30T04:46:37.780Z,11.80
2018-07-30T04:49:05.083Z,12.37
2018-07-30T04:51:32.854Z,12.47
2018-07-30T04:54:00.171Z,13.58
2018-07-30T04:56:27.862Z,12.53
2018-07-30T04:58:57.108Z,13.25
2018-07-30T05:01:26.119Z,12.75
2018-07-30T05:03:53.517Z,13.05
2018-07-30T05:06:20.727Z,13.32
2018-07-30T05:08:48.018Z,12.60
2018-07-30T05:11:15.336Z,12.28
2018-07-30T05:13:42.591Z,12.88
2018-07-30T05:16:09.872Z,13.95
2018-07-30T05:18:37.127Z,12.68
2018-07-30T05:21:04.383Z,12.05
2018-07-30T05:23:31.679Z,12.50
2018-07-30T05:25:58.957Z,12.55
2018-07-30T05:28:26.239Z,12.88
2018-07-30T05:30:53.530Z,12.85
2018-07-30T05:33:20.803Z,12.15
2018-07-30T05:35:48.077Z,12.73
2018-07-30T05:38:15.352Z,11.93
2018-07-30T05:40:42.671Z,13.35
2018-07-30T05:43:09.953Z,12.68
2018-07-30T05:45:37.217Z,12.70
2018-07-30T05:48:04.559Z,12.37
2018-07-30T05:50:31.830Z,12.78
2018-07-30T05:52:59.064Z,12.15
2018-07-30T05:55:26.306Z,12.10
2018-07-30T05:57:53.527Z,12.37
2018-07-30T06:00:20.823Z,12.03
2018-07-30T06:02:48.327Z,11.85
2018-07-30T06:05:15.575Z,11.05
2018-07-30T06:07:42.817Z,10.95
2018-07-30T06:10:10.067Z,10.95
2018-07-30T06:12:37.335Z,11.35
2018-07-30T06:15:06.445Z,11.48
2018-07-30T06:17:33.687Z,11.18
2018-07-30T06:20:00.966Z,10.78
2018-07-30T06:22:28.246Z,10.80
2018-07-30T06:24:55.505Z,10.65
2018-07-30T06:27:22.821Z,10.20
2018-07-30T06:29:50.026Z,9.48
2018-07-30T06:32:17.276Z,9.83
2018-07-30T06:34:44.523Z,9.85
2018-07-30T06:37:11.844Z,9.78
2018-07-30T06:39:39.094Z,9.78
2018-07-30T06:42:06.368Z,8.75
2018-07-30T06:44:33.629Z,8.45
2018-07-30T06:47:00.939Z,8.35
2018-07-30T06:49:28.148Z,9.00
2018-07-30T06:51:55.454Z,8.28
2018-07-30T06:54:22.661Z,9.13
2018-07-30T06:56:49.913Z,8.08
2018-07-30T06:59:19.043Z,8.55
2018-07-30T07:01:46.397Z,8.73
2018-07-30T07:04:13.634Z,8.50
2018-07-30T07:06:40.880Z,8.43
2018-07-30T07:09:09.044Z,8.10
2018-07-30T07:11:36.795Z,8.05
2018-07-30T07:14:04.068Z,8.50
2018-07-30T07:16:31.316Z,8.05
2018-07-30T07:19:01.047Z,8.38
2018-07-30T07:21:28.508Z,8.23
2018-07-30T07:24:02.320Z,6.97
2018-07-30T07:26:29.642Z,7.35
2018-07-30T07:28:56.919Z,6.80
2018-07-30T07:31:24.280Z,7.60
2018-07-30T07:33:51.598Z,7.28
2018-07-30T07:36:19.448Z,6.78
2018-07-30T07:38:46.717Z,6.75
2018-07-30T07:41:13.995Z,6.80
2018-07-30T07:43:41.258Z,6.25
2018-07-30T07:46:08.539Z,6.08
2018-07-30T07:48:35.832Z,6.25
2018-07-30T07:51:03.566Z,6.17
2018-07-30T07:53:30.696Z,5.97
2018-07-30T07:55:58.000Z,6.58
2018-07-30T07:58:25.341Z,7.03
2018-07-30T08:00:52.643Z,6.67
2018-07-30T08:03:19.933Z,6.00
2018-07-30T08:05:47.179Z,6.05
2018-07-30T08:08:14.451Z,6.22
2018-07-30T08:10:41.776Z,5.83
2018-07-30T08:13:09.035Z,5.80
2018-07-30T08:15:36.291Z,6.15
2018-07-30T08:18:03.663Z,6.10
2018-07-30T08:20:30.902Z,5.67
2018-07-30T08:22:58.247Z,5.62
2018-07-30T08:25:25.524Z,6.08
2018-07-30T08:27:52.787Z,5.80
2018-07-30T08:30:20.071Z,5.75
2018-07-30T08:32:47.367Z,6.10
2018-07-30T08:35:14.909Z,5.95
2018-07-30T08:37:42.215Z,5.40
2018-07-30T08:40:09.472Z,5.22
2018-07-30T08:42:36.695Z,5.40
2018-07-30T08:45:04.875Z,4.95
2018-07-30T08:47:32.195Z,4.97
2018-07-30T08:49:59.445Z,5.50
2018-07-30T08:52:26.795Z,5.10
2018-07-30T08:54:54.360Z,4.92
2018-07-30T08:57:22.192Z,4.83
2018-07-30T08:59:49.439Z,4.58
2018-07-30T09:02:16.910Z,4.95
2018-07-30T09:04:44.155Z,4.83
2018-07-30T09:07:11.401Z,4.72
2018-07-30T09:09:38.702Z,4.95
2018-07-30T09:12:06.042Z,4.42
2018-07-30T09:14:33.288Z,4.53
2018-07-30T09:17:00.570Z,4.22
2018-07-30T09:19:27.923Z,4.25
2018-07-30T09:21:55.168Z,4.28
2018-07-30T09:24:22.431Z,4.50
2018-07-30T09:26:49.727Z,4.50
2018-07-30T09:29:16.981Z,4.00
2018-07-30T09:31:44.267Z,4.20
2018-07-30T09:34:12.523Z,3.90
2018-07-30T09:36:39.765Z,3.80
2018-07-30T09:39:08.718Z,4.15
2018-07-30T09:41:36.218Z,3.70
2018-07-30T09:44:03.515Z,3.58
2018-07-30T09:46:31.111Z,3.67
2018-07-30T09:48:58.367Z,3.50
2018-07-30T09:51:25.628Z,3.60
2018-07-30T09:53:52.939Z,3.30
2018-07-30T09:56:20.218Z,3.10
2018-07-30T09:58:47.547Z,3.08
2018-07-30T10:01:20.599Z,2.95
2018-07-30T10:03:47.850Z,2.98
2018-07-30T10:06:15.131Z,3.00
2018-07-30T10:08:42.379Z,3.50
2018-07-30T10:11:09.648Z,3.37
2018-07-30T10:13:36.916Z,3.08
2018-07-30T10:16:04.191Z,3.10
2018-07-30T10:18:31.451Z,3.10
2018-07-30T10:20:58.733Z,2.83
2018-07-30T10:23:25.964Z,2.75
2018-07-30T10:25:53.252Z,2.60
2018-07-30T10:28:20.492Z,2.60
2018-07-30T10:30:47.857Z,2.77
2018-07-30T10:33:15.006Z,2.55
2018-07-30T10:35:42.366Z,2.50
2018-07-30T10:38:09.765Z,2.50
2018-07-30T10:40:36.921Z,2.50
2018-07-30T10:43:04.183Z,2.42
2018-07-30T10:45:31.439Z,2.60
2018-07-30T10:47:59.266Z,2.30
2018-07-30T10:50:26.526Z,2.60
2018-07-30T10:52:53.783Z,2.70
2018-07-30T10:55:21.034Z,2.52
2018-07-30T10:57:48.344Z,2.60
2018-07-30T11:00:15.639Z,2.52
2018-07-30T11:02:42.890Z,2.70
2018-07-30T11:05:10.163Z,2.55
2018-07-30T11:07:37.423Z,2.60
2018-07-30T11:10:04.784Z,2.37
2018-07-30T11:12:32.034Z,2.60
2018-07-30T11:14:59.294Z,2.30
2018-07-30T11:17:26.548Z,2.40
2018-07-30T11:19:53.796Z,2.05
2018-07-30T11:22:21.019Z,2.20
2018-07-30T11:24:48.255Z,2.10
2018-07-30T11:27:15.490Z,2.08
2018-07-30T11:29:42.790Z,2.00
2018-07-30T11:32:10.168Z,1.90
2018-07-30T11:34:38.077Z,2.30
2018-07-30T11:37:05.324Z,1.85
2018-07-30T11:39:32.570Z,1.77
2018-07-30T11:41:59.848Z,2.12
2018-07-30T11:44:27.074Z,1.70
2018-07-30T11:46:54.315Z,2.00
2018-07-30T11:49:21.588Z,1.77
2018-07-30T11:51:48.876Z,2.00
2018-07-30T11:54:16.118Z,2.17
2018-07-30T11:56:43.385Z,2.10
2018-07-30T11:59:11.127Z,2.15
2018-07-30T12:01:38.389Z,2.12
2018-07-30T12:04:05.620Z,1.98
2018-07-30T12:06:32.851Z,2.10
2018-07-30T12:09:00.102Z,2.37
2018-07-30T12:11:27.379Z,2.40
2018-07-30T12:13:54.610Z,2.10
2018-07-30T12:16:21.855Z,2.20
2018-07-30T12:18:49.063Z,2.50
2018-07-30T12:21:16.322Z,2.60
2018-07-30T12:23:43.570Z,2.65
2018-07-30T12:26:10.851Z,2.90
2018-07-30T12:28:38.136Z,2.90
2018-07-30T12:31:05.625Z,2.98
2018-07-30T12:33:32.784Z,3.02
2018-07-30T12:36:00.061Z,3.37
2018-07-30T12:38:27.399Z,3.58
2018-07-30T12:40:54.631Z,3.80
2018-07-30T12:43:21.898Z,4.03
2018-07-30T12:45:49.136Z,4.35
2018-07-30T12:48:16.426Z,5.15
2018-07-30T12:50:43.880Z,4.70
2018-07-30T12:53:11.139Z,4.90
2018-07-30T12:55:38.399Z,5.05
2018-07-30T12:58:06.338Z,4.90
2018-07-30T13:00:33.656Z,4.85
2018-07-30T13:03:01.164Z,5.22
2018-07-30T13:05:28.371Z,4.97
2018-07-30T13:07:55.652Z,5.12
2018-07-30T13:10:22.979Z,4.97
2018-07-30T13:12:50.234Z,4.62
2018-07-30T13:15:17.483Z,4.65
2018-07-30T13:17:45.013Z,5.53
2018-07-30T13:20:12.295Z,5.00
2018-07-30T13:22:39.564Z,4.80
2018-07-30T13:25:06.903Z,5.22
2018-07-30T13:27:34.215Z,4.92
2018-07-30T13:30:01.490Z,5.25
2018-07-30T13:32:28.782Z,5.00
2018-07-30T13:34:56.032Z,5.20
2018-07-30T13:37:23.312Z,5.28
2018-07-30T13:39:50.595Z,5.25
2018-07-30T13:42:17.861Z,5.22
2018-07-30T13:44:45.167Z,5.10
2018-07-30T13:47:12.448Z,5.03
2018-07-30T13:49:39.743Z,5.37
2018-07-30T13:52:07.026Z,4.92
2018-07-30T13:54:34.307Z,4.80
2018-07-30T13:57:01.594Z,5.47
2018-07-30T13:59:28.873Z,5.33
2018-07-30T14:01:56.106Z,5.40
2018-07-30T14:04:23.372Z,5.08
2018-07-30T14:06:50.616Z,5.05
2018-07-30T14:09:17.859Z,5.20
2018-07-30T14:11:45.160Z,5.12
2018-07-30T14:14:12.425Z,4.97
2018-07-30T14:16:40.697Z,5.30
2018-07-30T14:19:08.011Z,5.40
2018-07-30T14:21:35.304Z,5.40
2018-07-30T14:24:02.607Z,5.00
2018-07-30T14:26:29.889Z,4.92
2018-07-30T14:28:57.130Z,4.75
2018-07-30T14:31:24.390Z,4.92
2018-07-30T14:33:51.626Z,5.08
2018-07-30T14:36:18.879Z,5.40
2018-07-30T14:38:46.147Z,5.20
2018-07-30T14:41:13.429Z,4.92
2018-07-30T14:43:40.842Z,4.92
2018-07-30T14:46:08.134Z,5.10
2018-07-30T14:48:35.448Z,5.10
2018-07-30T14:51:02.790Z,5.53
2018-07-30T14:53:30.098Z,4.75
2018-07-30T14:55:57.358Z,4.97
2018-07-30T14:58:24.663Z,6.05
2018-07-30T15:00:51.915Z,5.25
2018-07-30T15:03:19.179Z,5.45
2018-07-30T15:05:46.494Z,5.35
2018-07-30T15:08:13.795Z,5.45
2018-07-30T15:10:41.089Z,5.22
2018-07-30T15:13:08.364Z,5.10
2018-07-30T15:15:35.728Z,5.75
2018-07-30T15:18:02.996Z,5.05
2018-07-30T15:20:30.331Z,5.45
2018-07-30T15:22:57.634Z,5.28
2018-07-30T15:25:24.925Z,5.20
2018-07-30T15:27:52.200Z,5.20
2018-07-30T15:30:19.495Z,5.70
2018-07-30T15:32:46.800Z,5.53
2018-07-30T15:35:14.066Z,4.70
2018-07-30T15:37:41.591Z,5.20
2018-07-30T15:40:08.940Z,5.22
2018-07-30T15:42:36.199Z,4.95
2018-07-30T15:45:03.888Z,5.15
2018-07-30T15:47:31.196Z,5.03
2018-07-30T15:53:12.059Z,4.90
2018-07-30T15:55:43.195Z,5.33
2018-07-30T15:58:11.066Z,5.20
2018-07-30T16:00:38.330Z,5.28
2018-07-30T16:03:05.615Z,5.28
2018-07-30T16:05:33.061Z,5.58
2018-07-30T16:08:00.573Z,5.25
2018-07-30T16:10:27.834Z,5.28
2018-07-30T16:12:55.511Z,5.30
2018-07-30T16:15:22.746Z,5.50
2018-07-30T16:17:50.073Z,5.45
2018-07-30T16:20:17.286Z,5.53
2018-07-30T16:22:44.532Z,5.42
2018-07-30T16:25:11.837Z,5.12
2018-07-30T16:27:39.095Z,5.20
2018-07-30T16:30:06.972Z,5.25
2018-07-30T16:32:42.574Z,5.60
2018-07-30T16:35:09.856Z,5.58
2018-07-30T16:37:37.131Z,5.42
2018-07-30T16:40:11.268Z,5.60
2018-07-30T16:42:38.556Z,5.30
2018-07-30T16:45:07.174Z,5.90
2018-07-30T16:47:34.762Z,5.60
2018-07-30T16:50:06.809Z,5.40
2018-07-30T16:52:34.146Z,5.65
2018-07-30T16:55:01.460Z,5.60
2018-07-30T16:57:28.724Z,5.42
2018-07-30T16:59:56.387Z,5.50
2018-07-30T17:02:23.675Z,4.80
2018-07-30T17:04:51.058Z,5.35
2018-07-30T17:07:18.323Z,5.62
2018-07-30T17:09:45.611Z,4.67
2018-07-30T17:12:12.899Z,5.42
2018-07-30T17:17:13.630Z,5.50
2018-07-30T17:19:40.950Z,5.42
2018-07-30T17:22:08.326Z,5.60
2018-07-30T17:24:35.810Z,5.60
2018-07-30T17:27:03.140Z,5.15
2018-07-30T17:29:30.453Z,5.35
2018-07-30T17:31:57.837Z,5.58
2018-07-30T17:34:25.115Z,5.37
2018-07-30T17:36:52.622Z,5.20
2018-07-30T17:39:19.893Z,4.58
2018-07-30T17:41:47.183Z,4.70
2018-07-30T17:44:14.568Z,4.78
2018-07-30T17:46:41.951Z,4.67
2018-07-30T17:49:09.251Z,4.92
2018-07-30T17:51:36.527Z,4.83
2018-07-30T17:54:03.842Z,4.60
2018-07-30T17:56:31.339Z,4.87
2018-07-30T17:58:58.631Z,4.65
2018-07-30T18:01:25.904Z,4.40
2018-07-30T18:03:53.190Z,4.50
2018-07-30T18:06:20.477Z,4.58
2018-07-30T18:08:47.819Z,4.65
2018-07-30T18:11:15.130Z,4.33
2018-07-30T18:13:42.512Z,4.50
2018-07-30T18:16:09.782Z,4.65
2018-07-30T18:18:37.051Z,4.60
2018-07-30T18:21:04.321Z,5.25
2018-07-30T18:23:31.619Z,4.58
2018-07-30T18:25:58.910Z,5.20
2018-07-30T18:28:26.365Z,4.95
2018-07-30T18:30:53.761Z,4.90
2018-07-30T18:33:21.044Z,4.80
2018-07-30T18:35:48.318Z,4.97
2018-07-30T18:38:15.787Z,4.67
2018-07-30T18:40:43.128Z,5.47
2018-07-30T18:43:10.407Z,5.03
2018-07-30T18:45:37.665Z,5.10
2018-07-30T18:48:05.428Z,5.42
2018-07-30T18:50:32.791Z,5.42
2018-07-30T18:53:00.051Z,5.47
2018-07-30T18:55:27.484Z,5.25
2018-07-30T18:57:54.827Z,6.85
2018-07-30T19:00:22.124Z,5.47
2018-07-30T19:02:49.463Z,5.87
2018-07-30T19:05:16.711Z,5.62
2018-07-30T19:07:44.039Z,5.53
2018-07-30T19:10:11.406Z,5.33
2018-07-30T19:12:38.771Z,5.50
2018-07-30T19:15:06.393Z,6.00
2018-07-30T19:17:34.005Z,5.55
2018-07-30T19:20:01.647Z,5.72
2018-07-30T19:22:29.000Z,5.70
2018-07-30T19:24:57.644Z,5.47
2018-07-30T19:27:24.977Z,5.85
2018-07-30T19:29:52.253Z,5.45
2018-07-30T19:32:19.804Z,5.70
2018-07-30T19:34:47.165Z,6.37
2018-07-30T19:37:14.486Z,5.83
2018-07-30T19:39:42.016Z,5.55
2018-07-30T19:42:09.338Z,6.50
2018-07-30T19:44:36.673Z,6.42
2018-07-30T19:47:03.947Z,6.28
2018-07-30T19:49:31.262Z,5.97
2018-07-30T19:51:58.612Z,5.87
2018-07-30T19:54:27.518Z,5.95
2018-07-30T19:56:55.223Z,5.92
2018-07-30T19:59:22.874Z,5.53
2018-07-30T20:01:52.993Z,6.80
2018-07-30T20:04:21.269Z,6.70
2018-07-30T20:06:49.533Z,6.83
2018-07-30T20:09:17.160Z,6.78
2018-07-30T20:11:45.061Z,6.87
2018-07-30T20:14:13.772Z,6.50
2018-07-30T20:16:42.511Z,6.28
2018-07-30T20:19:10.643Z,6.70
2018-07-30T20:21:38.592Z,6.47
2018-07-30T20:24:08.168Z,6.58
2018-07-30T20:26:35.944Z,6.20
2018-07-30T20:29:03.275Z,6.20
2018-07-30T20:31:30.652Z,7.00
2018-07-30T20:33:58.676Z,6.53
2018-07-30T20:36:25.971Z,7.28
2018-07-30T20:38:53.673Z,6.60
2018-07-30T20:41:21.676Z,6.90
2018-07-30T20:43:49.027Z,7.00
2018-07-30T20:46:16.483Z,7.20
2018-07-30T20:48:43.783Z,7.10
2018-07-30T20:51:11.305Z,7.20
2018-07-30T20:53:38.579Z,6.80
2018-07-30T20:56:05.859Z,6.87
2018-07-30T20:58:33.329Z,7.55
2018-07-30T21:01:02.708Z,7.50
2018-07-30T21:03:29.966Z,6.65
2018-07-30T21:05:57.235Z,7.33
2018-07-30T21:08:24.664Z,7.55
2018-07-30T21:10:52.226Z,7.67
2018-07-30T21:13:19.512Z,6.95
2018-07-30T21:15:46.848Z,7.03
2018-07-30T21:18:14.163Z,7.50
2018-07-30T21:20:41.855Z,6.97
2018-07-30T21:23:09.323Z,7.05
2018-07-30T21:25:36.894Z,7.30
2018-07-30T21:28:04.407Z,7.53
2018-07-30T21:30:31.711Z,8.10
2018-07-30T21:32:59.010Z,7.67
2018-07-30T21:35:26.480Z,7.78
2018-07-30T21:37:53.829Z,8.95
2018-07-30T21:40:21.167Z,7.85
2018-07-30T21:42:48.459Z,7.28
2018-07-30T21:45:15.748Z,6.95
2018-07-30T21:47:43.065Z,7.25
2018-07-30T21:50:10.626Z,7.05
2018-07-30T21:52:37.889Z,7.50
2018-07-30T21:55:05.264Z,7.60
2018-07-30T21:57:32.570Z,7.10
2018-07-30T21:59:59.935Z,7.92
2018-07-30T22:02:27.228Z,7.75
2018-07-30T22:04:54.773Z,7.92
2018-07-30T22:07:22.136Z,8.00
2018-07-30T22:09:49.691Z,7.72
2018-07-30T22:12:16.996Z,7.60
2018-07-30T22:14:44.352Z,7.28
2018-07-30T22:17:11.871Z,8.25
2018-07-30T22:19:39.183Z,7.65
2018-07-30T22:22:06.479Z,7.87
2018-07-30T22:24:33.965Z,7.62
2018-07-30T22:27:01.289Z,7.85
2018-07-30T22:29:28.570Z,7.42
2018-07-30T22:31:55.910Z,7.80
2018-07-30T22:34:23.181Z,8.05
2018-07-30T22:36:50.711Z,7.70
2018-07-30T22:39:17.987Z,7.45
2018-07-30T22:41:45.448Z,8.15
2018-07-30T22:44:13.104Z,7.75
2018-07-30T22:46:40.898Z,7.97
2018-07-30T22:49:08.182Z,7.78
2018-07-30T22:51:35.668Z,7.78
2018-07-30T22:54:02.932Z,8.00
2018-07-30T22:56:30.642Z,7.85
2018-07-30T22:58:58.175Z,7.85
2018-07-30T23:01:25.819Z,8.45
2018-07-30T23:03:53.187Z,8.00
2018-07-30T23:06:20.504Z,7.95
2018-07-30T23:08:47.808Z,8.03
2018-07-30T23:11:15.071Z,7.72
2018-07-30T23:13:42.363Z,7.80
2018-07-30T23:16:09.700Z,8.00
2018-07-30T23:18:37.989Z,8.55
2018-07-30T23:21:05.722Z,8.20
2018-07-30T23:23:33.024Z,8.00
2018-07-30T23:26:00.332Z,9.00
2018-07-30T23:28:27.597Z,9.18
2018-07-30T23:30:55.722Z,7.80
2018-07-30T23:33:23.432Z,8.45
2018-07-30T23:35:50.723Z,8.63
2018-07-30T23:38:18.147Z,8.73
2018-07-30T23:40:45.479Z,8.75
2018-07-30T23:43:13.690Z,9.10
2018-07-30T23:45:41.428Z,9.08
2018-07-30T23:48:08.696Z,9.25
2018-07-30T23:50:35.966Z,9.50
2018-07-30T23:53:03.247Z,9.03
2018-07-30T23:55:30.496Z,9.68
2018-07-30T23:57:58.337Z,9.28
